Time,TemperatureF,DewpointF,PressureIn,WindDirection,WindDirectionDegrees,WindSpeedMPH,WindSpeedGustMPH,Humidity,HourlyPrecipIn,Conditions,Clouds,dailyrainin,SoftwareType,DateUTC
2013-06-05 00:14:00,43.5,35.0,30.37,ENE,68,0.0,0.0,73,0.00,,,0.00,weatherlink.com 1.10,2013-06-05 06:14:00,
2013-06-05 00:29:00,43.9,36.0,30.36,ENE,68,0.0,1.0,74,0.00,,,0.00,weatherlink.com 1.10,2013-06-05 06:29:00,
2013-06-05 00:44:00,44.1,36.0,30.36,ENE,68,0.0,1.0,74,0.00,,,0.00,weatherlink.com 1.10,2013-06-05 06:44:00,
2013-06-05 00:59:00,44.5,36.0,30.36,ENE,68,0.0,0.0,73,0.00,,,0.00,weatherlink.com 1.10,2013-06-05 06:59:00,
2013-06-05 01:14:00,45.5,35.0,30.36,ENE,68,2.0,3.0,67,0.00,,,0.00,weatherlink.com 1.10,2013-06-05 07:14:00,
2013-06-05 01:29:00,46.7,34.0,30.36,ENE,68,1.0,3.0,61,0.00,,,0.00,weatherlink.com 1.10,2013-06-05 07:29:00,
2013-06-05 01:44:00,46.7,34.0,30.36,ENE,68,4.0,4.0,61,0.00,,,0.00,weatherlink.com 1.10,2013-06-05 07:44:00,
2013-06-05 01:59:00,46.4,35.0,30.35,ENE,68,0.0,4.0,64,0.00,,,0.00,weatherlink.com 1.10,2013-06-05 07:59:00,
2013-06-05 02:14:00,46.0,35.0,30.34,ENE,68,2.0,3.0,65,0.00,,,0.00,weatherlink.com 1.10,2013-06-05 08:14:00,
2013-06-05 02:29:00,46.0,34.0,30.34,ESE,104,9.0,9.0,64,0.00,,,0.00,weatherlink.com 1.10,2013-06-05 08:29:00,
2013-06-05 02:44:00,45.4,35.0,30.33,ENE,74,4.0,7.0,66,0.00,,,0.00,weatherlink.com 1.10,2013-06-05 08:44:00,
2013-06-05 02:59:00,44.9,34.0,30.33,East,98,3.0,5.0,67,0.00,,,0.00,weatherlink.com 1.10,2013-06-05 08:59:00,
2013-06-05 03:14:00,44.6,35.0,30.33,East,98,1.0,3.0,68,0.00,,,0.00,weatherlink.com 1.10,2013-06-05 09:14:00,
2013-06-05 03:29:00,44.5,34.0,30.33,East,98,0.0,1.0,68,0.00,,,0.00,weatherlink.com 1.10,2013-06-05 09:29:00,
2013-06-05 03:44:00,44.5,34.0,30.33,East,98,0.0,1.0,67,0.00,,,0.00,weatherlink.com 1.10,2013-06-05 09:44:00,
2013-06-05 03:59:00,44.6,34.0,30.33,East,98,0.0,0.0,67,0.00,,,0.00,weatherlink.com 1.10,2013-06-05 09:59:00,
2013-06-05 04:14:00,44.6,35.0,30.33,East,98,0.0,0.0,69,0.00,,,0.00,weatherlink.com 1.10,2013-06-05 10:14:00,
2013-06-05 04:29:00,44.5,34.0,30.33,East,98,0.0,0.0,68,0.00,,,0.00,weatherlink.com 1.10,2013-06-05 10:29:00,
2013-06-05 04:44:00,44.3,34.0,30.33,East,98,0.0,2.0,67,0.00,,,0.00,weatherlink.com 1.10,2013-06-05 10:44:00,
2013-06-05 04:59:00,44.2,33.0,30.33,East,98,0.0,0.0,66,0.00,,,0.00,weatherlink.com 1.10,2013-06-05 10:59:00,
2013-06-05 05:14:00,44.1,34.0,30.32,East,98,1.0,3.0,67,0.00,,,0.00,weatherlink.com 1.10,2013-06-05 11:14:00,
2013-06-05 05:29:00,43.1,35.0,30.33,East,98,0.0,3.0,72,0.00,,,0.00,weatherlink.com 1.10,2013-06-05 11:29:00,
2013-06-05 05:44:00,40.9,33.0,30.32,NNW,347,0.0,3.0,74,0.00,,,0.00,weatherlink.com 1.10,2013-06-05 11:44:00,
2013-06-05 05:59:00,39.1,33.0,30.32,NNW,347,0.0,2.0,78,0.00,,,0.00,weatherlink.com 1.10,2013-06-05 11:59:00,
2013-06-05 06:14:00,38.6,33.0,30.32,NNW,347,0.0,1.0,81,0.00,,,0.00,weatherlink.com 1.10,2013-06-05 12:14:00,
2013-06-05 06:29:00,38.5,33.0,30.32,NNW,347,2.0,3.0,82,0.00,,,0.00,weatherlink.com 1.10,2013-06-05 12:29:00,
2013-06-05 06:44:00,39.6,34.0,30.32,NNW,347,0.0,3.0,81,0.00,,,0.00,weatherlink.com 1.10,2013-06-05 12:44:00,
2013-06-05 06:59:00,41.6,34.0,30.32,NNW,347,2.0,3.0,75,0.00,,,0.00,weatherlink.com 1.10,2013-06-05 12:59:00,
2013-06-05 07:14:00,44.5,34.0,30.32,NNW,347,1.0,3.0,66,0.00,,,0.00,weatherlink.com 1.10,2013-06-05 13:14:00,
2013-06-05 07:29:00,46.8,34.0,30.32,NNW,347,0.0,2.0,61,0.00,,,0.00,weatherlink.com 1.10,2013-06-05 13:29:00,
2013-06-05 07:44:00,48.3,33.0,30.32,SE,125,2.0,4.0,57,0.00,,,0.00,weatherlink.com 1.10,2013-06-05 13:44:00,
2013-06-05 07:59:00,48.9,33.0,30.32,East,85,5.0,6.0,54,0.00,,,0.00,weatherlink.com 1.10,2013-06-05 13:59:00,
2013-06-05 08:14:00,48.2,33.0,30.32,East,100,5.0,10.0,55,0.00,,,0.00,weatherlink.com 1.10,2013-06-05 14:14:00,
2013-06-05 08:29:00,48.8,33.0,30.31,East,100,0.0,8.0,55,0.00,,,0.00,weatherlink.com 1.10,2013-06-05 14:29:00,
2013-06-05 08:44:00,49.2,33.0,30.31,ENE,75,3.0,7.0,55,0.00,,,0.00,weatherlink.com 1.10,2013-06-05 14:44:00,
2013-06-05 09:00:00,49.6,33.0,30.30,NE,36,0.0,9.0,54,0.00,,,0.00,weatherlink.com 1.10,2013-06-05 15:00:00,
2013-06-05 09:15:00,50.1,33.0,30.30,ENE,57,4.0,9.0,53,0.00,,,0.00,weatherlink.com 1.10,2013-06-05 15:15:00,
2013-06-05 09:30:00,50.7,34.0,30.30,NNE,18,3.0,8.0,53,0.00,,,0.00,weatherlink.com 1.10,2013-06-05 15:30:00,
2013-06-05 09:45:00,52.0,36.0,30.30,ESE,119,7.0,10.0,54,0.00,,,0.00,weatherlink.com 1.10,2013-06-05 15:45:00,
2013-06-05 10:00:00,50.8,34.0,30.29,East,98,6.0,8.0,53,0.00,,,0.00,weatherlink.com 1.10,2013-06-05 16:00:00,
2013-06-05 10:15:00,52.5,34.0,30.29,East,95,1.0,11.0,50,0.00,,,0.00,weatherlink.com 1.10,2013-06-05 16:15:00,
2013-06-05 10:30:00,53.6,36.0,30.29,East,83,5.0,8.0,51,0.00,,,0.00,weatherlink.com 1.10,2013-06-05 16:30:00,
2013-06-05 10:45:00,54.8,35.0,30.28,WNW,297,0.0,4.0,47,0.00,,,0.00,weatherlink.com 1.10,2013-06-05 16:45:00,
2013-06-05 11:00:00,54.5,35.0,30.28,East,82,6.0,10.0,48,0.00,,,0.00,weatherlink.com 1.10,2013-06-05 17:00:00,
2013-06-05 11:15:00,55.7,37.0,30.27,ENE,73,2.0,8.0,50,0.00,,,0.00,weatherlink.com 1.10,2013-06-05 17:15:00,
2013-06-05 11:30:00,55.0,36.0,30.27,ESE,109,7.0,13.0,49,0.00,,,0.00,weatherlink.com 1.10,2013-06-05 17:30:00,
2013-06-05 11:45:00,55.1,36.0,30.27,East,95,6.0,9.0,49,0.00,,,0.00,weatherlink.com 1.10,2013-06-05 17:45:00,
2013-06-05 12:00:00,56.2,37.0,30.26,NE,56,8.0,13.0,48,0.00,,,0.00,weatherlink.com 1.10,2013-06-05 18:00:00,
2013-06-05 12:15:00,56.5,37.0,30.26,NE,41,7.0,13.0,48,0.00,,,0.00,weatherlink.com 1.10,2013-06-05 18:15:00,
2013-06-05 12:30:00,57.3,36.0,30.26,NE,52,5.0,11.0,46,0.00,,,0.00,weatherlink.com 1.10,2013-06-05 18:30:00,
2013-06-05 12:45:00,57.5,37.0,30.25,East,83,5.0,14.0,46,0.00,,,0.00,weatherlink.com 1.10,2013-06-05 18:45:00,
2013-06-05 13:00:00,57.8,36.0,30.25,North,10,6.0,12.0,45,0.00,,,0.00,weatherlink.com 1.10,2013-06-05 19:00:00,
2013-06-05 13:15:00,59.9,35.0,30.24,NNE,18,0.0,5.0,40,0.00,,,0.00,weatherlink.com 1.10,2013-06-05 19:15:00,
2013-06-05 13:30:00,60.2,34.0,30.24,SE,138,2.0,8.0,38,0.00,,,0.00,weatherlink.com 1.10,2013-06-05 19:30:00,
2013-06-05 13:45:00,60.9,34.0,30.23,SE,127,1.0,12.0,37,0.00,,,0.00,weatherlink.com 1.10,2013-06-05 19:45:00,
2013-06-05 14:00:00,62.9,33.0,30.22,ENE,78,9.0,9.0,33,0.00,,,0.00,weatherlink.com 1.10,2013-06-05 20:00:00,
2013-06-05 14:15:00,62.1,36.0,30.21,North,354,2.0,7.0,38,0.00,,,0.00,weatherlink.com 1.10,2013-06-05 20:15:00,
2013-06-05 14:30:00,63.2,33.0,30.20,ENE,60,2.0,11.0,32,0.00,,,0.00,weatherlink.com 1.10,2013-06-05 20:30:00,
2013-06-05 14:45:00,64.2,31.0,30.19,ESE,102,5.0,13.0,29,0.00,,,0.00,weatherlink.com 1.10,2013-06-05 20:45:00,
2013-06-05 15:00:00,64.8,32.0,30.19,ESE,116,7.0,10.0,29,0.00,,,0.00,weatherlink.com 1.10,2013-06-05 21:00:00,
2013-06-05 15:15:00,63.9,31.0,30.18,East,97,6.0,14.0,29,0.00,,,0.00,weatherlink.com 1.10,2013-06-05 21:15:00,
2013-06-05 15:30:00,65.2,30.0,30.18,ESE,104,5.0,9.0,27,0.00,,,0.00,weatherlink.com 1.10,2013-06-05 21:30:00,
2013-06-05 15:45:00,66.6,32.0,30.18,ESE,114,5.0,11.0,28,0.00,,,0.00,weatherlink.com 1.10,2013-06-05 21:45:00,
2013-06-05 16:00:00,65.5,33.0,30.17,ENE,69,1.0,15.0,30,0.00,,,0.00,weatherlink.com 1.10,2013-06-05 22:00:00,
2013-06-05 16:15:00,65.6,34.0,30.16,ENE,76,3.0,14.0,31,0.00,,,0.00,weatherlink.com 1.10,2013-06-05 22:15:00,
2013-06-05 16:31:00,66.1,35.0,30.16,ESE,120,8.0,13.0,32,0.00,,,0.00,weatherlink.com 1.10,2013-06-05 22:31:00,
2013-06-05 16:46:00,66.4,33.0,30.15,East,91,1.0,10.0,29,0.00,,,0.00,weatherlink.com 1.10,2013-06-05 22:46:00,
2013-06-05 17:01:00,66.3,34.0,30.15,East,81,5.0,13.0,30,0.00,,,0.00,weatherlink.com 1.10,2013-06-05 23:01:00,
2013-06-05 17:16:00,66.3,35.0,30.14,ESE,106,2.0,11.0,32,0.00,,,0.00,weatherlink.com 1.10,2013-06-05 23:16:00,
2013-06-05 17:31:00,66.6,35.0,30.14,East,92,8.0,10.0,31,0.00,,,0.00,weatherlink.com 1.10,2013-06-05 23:31:00,
2013-06-05 17:46:00,66.4,33.0,30.14,East,100,1.0,11.0,29,0.00,,,0.00,weatherlink.com 1.10,2013-06-05 23:46:00,
2013-06-05 18:01:00,66.9,33.0,30.13,East,97,6.0,12.0,28,0.00,,,0.00,weatherlink.com 1.10,2013-06-06 00:01:00,
2013-06-05 18:16:00,66.8,37.0,30.13,NE,40,3.0,6.0,33,0.00,,,0.00,weatherlink.com 1.10,2013-06-06 00:16:00,
2013-06-05 18:31:00,66.4,33.0,30.13,East,88,5.0,10.0,29,0.00,,,0.00,weatherlink.com 1.10,2013-06-06 00:31:00,
2013-06-05 18:46:00,66.3,35.0,30.12,East,91,5.0,10.0,31,0.00,,,0.00,weatherlink.com 1.10,2013-06-06 00:46:00,
2013-06-05 19:01:00,66.1,32.0,30.13,East,93,6.0,9.0,28,0.00,,,0.00,weatherlink.com 1.10,2013-06-06 01:01:00,
2013-06-05 19:16:00,66.1,32.0,30.13,East,95,2.0,9.0,28,0.00,,,0.00,weatherlink.com 1.10,2013-06-06 01:16:00,
2013-06-05 20:01:00,66.3,32.0,30.12,East,90,1.0,2.0,28,0.00,,,0.00,weatherlink.com 1.10,2013-06-06 02:01:00,
2013-06-05 20:31:00,60.1,38.0,30.12,SW,220,2.0,4.0,44,0.00,,,0.00,weatherlink.com 1.10,2013-06-06 02:31:00,
2013-06-05 21:01:00,55.3,36.0,30.13,WNW,284,2.0,4.0,49,0.00,,,0.00,weatherlink.com 1.10,2013-06-06 03:01:00,
2013-06-05 21:16:00,54.7,36.0,30.13,West,267,4.0,6.0,50,0.00,,,0.00,weatherlink.com 1.10,2013-06-06 03:16:00,
2013-06-05 21:31:00,53.3,36.0,30.14,West,267,4.0,4.0,52,0.00,,,0.00,weatherlink.com 1.10,2013-06-06 03:31:00,
2013-06-05 21:46:00,52.8,36.0,30.15,SW,232,1.0,5.0,54,0.00,,,0.00,weatherlink.com 1.10,2013-06-06 03:46:00,
2013-06-05 22:31:00,49.5,35.0,30.16,WSW,248,2.0,4.0,58,0.00,,,0.00,weatherlink.com 1.10,2013-06-06 04:31:00,
2013-06-05 23:01:00,49.2,35.0,30.16,SW,214,3.0,6.0,59,0.00,,,0.00,weatherlink.com 1.10,2013-06-06 05:01:00,
2013-06-05 23:16:00,50.5,34.0,30.16,SW,226,4.0,8.0,54,0.00,,,0.00,weatherlink.com 1.10,2013-06-06 05:16:00,
2013-06-05 23:46:00,50.7,33.0,30.16,SW,231,5.0,7.0,52,0.00,,,0.00,weatherlink.com 1.10,2013-06-06 05:46:00,